Timmins/Victor M. Power
CYTS : now visible

Airfield :











YOU CAN JOIN US ON...

 
LOGIN :

Register | Disclaimer

   EN    FR    IT 

 









Legend :    VFR   Marginal VFR   IFR   Intensive IFR   Very Intensive IFR
Visi :
Ceiling :
>= 8 km
>= 3000ft
5 to 8 km
1000 to 3000 ft
1500m to 5 km
500 to 1000 ft
800 to 1500m
200 to 500 ft
< 800m
< 200 ft
Symbols :   Thunderstorms  Fog  Heavy snow  Heavy precipitations  Wind > 20 kt






- Airport Elevation : 967 ft
- IATA code : YTS


CYTS - Timmins/Victor M. Power

CURRENT METAR :
  • 050700Z 19005KT 5SM FU OVC130 17/16 A2999 RMK FU4AC4 SLP157 DENSITY ALT 1400FT

EXPIRED METARs :
  • 050600Z 20005KT 5SM FU OVC140 18/16 A2999 RMK FU4AC4 SLP157 DENSITY ALT 1600FT
  • 050500Z 20005KT 5SM FU OVC140 19/17 A2999 RMK FU4AC4 SLP157 DENSITY ALT 1700FT

TAF TAF CYTS
Valid from the 05 at 02:00 until the 05 at 14:00 UTC


050138Z 0502/0514 22006KT P6SM FEW060
TEMPO 0502/0514 5SM FU RMK NXT FCST BY 050800Z
CZYZ FIR / North America



MET'MAP, your aeronautical weather chart ! - Copyright ORBIFLY December 2007 - Disclaimer

ORBIFLY MET'MAP TEAM :

Programming & Development : Alexandra Zaïnal
Concept & original design : Baudouin d'Aumeries
Assistance for programming : Marc-Olivier Méhu
Technical & hardware support : Manuel Goepfert

Contact : metmap@orbifly.com




SOURCES & CREDITS :

   NOAA       Earth
Advisory